createdAt,value
2019-02-05T00:01:03.862Z,35.87
2019-02-05T00:03:32.071Z,38.27
2019-02-05T00:12:44.257Z,40.23
2019-02-05T00:15:18.394Z,44.50
2019-02-05T00:17:48.080Z,43.30
2019-02-05T00:20:18.354Z,41.33
2019-02-05T00:22:46.402Z,39.57
2019-02-05T00:25:14.638Z,41.07
2019-02-05T00:27:43.027Z,44.07
2019-02-05T00:30:30.935Z,44.03
2019-02-05T00:33:00.502Z,44.40
2019-02-05T00:35:28.669Z,44.47
2019-02-05T00:38:17.450Z,43.67
2019-02-05T00:40:47.094Z,48.63
2019-02-05T00:43:16.011Z,46.47
2019-02-05T00:45:44.322Z,44.83
2019-02-05T00:48:12.566Z,44.23
2019-02-05T00:50:43.053Z,44.93
2019-02-05T00:53:11.266Z,46.40
2019-02-05T00:55:40.412Z,51.43
2019-02-05T00:58:08.800Z,49.60
2019-02-05T01:00:38.890Z,48.73
2019-02-05T01:03:09.554Z,42.43
2019-02-05T01:05:58.059Z,47.50
2019-02-05T01:08:27.582Z,49.07
2019-02-05T01:10:55.795Z,46.97
2019-02-05T01:13:23.940Z,50.73
2019-02-05T01:15:52.182Z,47.17
2019-02-05T01:18:20.405Z,43.53
2019-02-05T01:20:50.127Z,48.90
2019-02-05T01:23:18.295Z,50.37
2019-02-05T01:25:46.348Z,47.73
2019-02-05T01:28:14.736Z,43.30
2019-02-05T01:30:43.196Z,49.47
2019-02-05T01:33:11.477Z,53.23
2019-02-05T01:35:39.532Z,49.17
2019-02-05T01:38:07.777Z,46.63
2019-02-05T01:40:38.229Z,49.40
2019-02-05T01:43:08.086Z,47.00
2019-02-05T01:45:36.107Z,52.40
2019-02-05T01:48:04.434Z,50.27
2019-02-05T01:50:34.197Z,56.50
2019-02-05T01:53:02.799Z,53.00
2019-02-05T01:55:31.792Z,54.53
2019-02-05T01:57:59.773Z,55.67
2019-02-05T02:00:35.007Z,60.57
2019-02-05T02:03:09.132Z,56.13
2019-02-05T02:05:39.395Z,59.00
2019-02-05T02:08:09.203Z,60.50
2019-02-05T02:10:41.008Z,58.60
2019-02-05T02:13:09.012Z,58.67
2019-02-05T02:15:37.966Z,61.90
2019-02-05T02:18:10.023Z,60.33
2019-02-05T02:20:38.475Z,66.70
2019-02-05T02:23:07.387Z,62.47
2019-02-05T02:25:36.591Z,66.40
2019-02-05T02:28:05.477Z,65.23
2019-02-05T02:30:40.661Z,71.07
2019-02-05T02:33:08.700Z,64.67
2019-02-05T02:35:37.487Z,69.47
2019-02-05T02:38:05.402Z,68.33
2019-02-05T02:40:33.321Z,62.00
2019-02-05T02:43:01.765Z,64.97
2019-02-05T02:45:31.524Z,69.03
2019-02-05T02:48:00.860Z,71.07
2019-02-05T02:50:28.709Z,69.97
2019-02-05T02:52:57.376Z,71.67
2019-02-05T02:55:25.288Z,76.70
2019-02-05T02:57:52.846Z,73.20
2019-02-05T03:00:20.355Z,66.50
2019-02-05T03:02:47.920Z,71.40
2019-02-05T03:05:34.866Z,67.00
2019-02-05T03:08:02.353Z,73.27
2019-02-05T03:10:30.164Z,75.80
2019-02-05T03:12:57.924Z,80.73
2019-02-05T03:15:25.432Z,67.67
2019-02-05T03:17:53.020Z,72.03
2019-02-05T03:20:20.559Z,75.30
2019-02-05T03:22:48.021Z,74.20
2019-02-05T03:25:18.820Z,73.33
2019-02-05T03:27:47.965Z,73.43
2019-02-05T03:30:17.356Z,81.13
2019-02-05T03:32:44.829Z,75.93
2019-02-05T03:35:12.526Z,80.57
2019-02-05T03:37:40.010Z,76.93
2019-02-05T03:40:15.779Z,86.97
2019-02-05T03:42:43.246Z,74.17
2019-02-05T03:45:10.812Z,78.23
2019-02-05T03:47:38.297Z,81.10
2019-02-05T03:50:05.837Z,78.17
2019-02-05T03:52:42.717Z,68.53
2019-02-05T03:55:38.985Z,84.17
2019-02-05T03:59:06.796Z,84.37
2019-02-05T04:02:00.274Z,76.27
2019-02-05T04:05:33.945Z,75.83
2019-02-05T04:08:29.164Z,80.50
2019-02-05T04:11:53.676Z,83.60
2019-02-05T04:14:58.989Z,72.33
2019-02-05T04:17:56.116Z,79.77
2019-02-05T04:20:56.031Z,81.00
2019-02-05T04:24:17.544Z,82.53
2019-02-05T04:27:09.589Z,79.70
2019-02-05T04:30:40.376Z,84.60
2019-02-05T04:33:33.815Z,81.27
2019-02-05T04:36:35.071Z,84.33
2019-02-05T04:39:45.334Z,94.17
2019-02-05T04:42:27.038Z,87.37
2019-02-05T04:45:34.955Z,87.40
2019-02-05T04:48:50.143Z,89.07
2019-02-05T04:51:49.622Z,90.17
2019-02-05T04:54:57.688Z,82.70
2019-02-05T04:58:28.630Z,88.93
2019-02-05T05:01:36.882Z,85.47
2019-02-05T05:04:33.715Z,81.90
2019-02-05T05:07:10.494Z,96.53
2019-02-05T05:10:00.568Z,92.60
2019-02-05T05:12:28.587Z,96.93
2019-02-05T05:14:56.071Z,106.40
2019-02-05T05:17:23.601Z,96.97
2019-02-05T05:19:51.585Z,88.73
2019-02-05T05:22:19.051Z,86.17
2019-02-05T05:24:46.571Z,88.50
2019-02-05T05:27:15.573Z,85.50
2019-02-05T05:29:43.256Z,94.33
2019-02-05T05:32:10.762Z,93.13
2019-02-05T05:34:41.006Z,87.10
2019-02-05T05:37:07.468Z,95.47
2019-02-05T05:39:35.007Z,96.30
2019-02-05T05:42:03.236Z,83.17
2019-02-05T05:44:30.728Z,89.57
2019-02-05T05:46:58.226Z,96.23
2019-02-05T05:49:25.748Z,105.07
2019-02-05T05:51:53.535Z,90.43
2019-02-05T05:54:21.142Z,93.30
2019-02-05T05:56:48.654Z,98.03
2019-02-05T05:59:16.219Z,93.10
2019-02-05T06:01:43.666Z,92.47
2019-02-05T06:04:11.635Z,92.67
2019-02-05T06:06:39.486Z,99.97
2019-02-05T06:09:08.096Z,93.50
2019-02-05T06:11:35.545Z,93.10
2019-02-05T06:14:04.288Z,84.80
2019-02-05T06:16:31.734Z,89.83
2019-02-05T06:18:59.196Z,94.67
2019-02-05T06:21:26.645Z,87.37
2019-02-05T06:23:54.208Z,90.67
2019-02-05T06:26:21.871Z,95.30
2019-02-05T06:28:49.307Z,94.40
2019-02-05T06:31:16.962Z,97.40
2019-02-05T06:33:44.386Z,90.87
2019-02-05T06:36:11.827Z,97.43
2019-02-05T06:38:39.250Z,98.60
2019-02-05T06:41:06.698Z,89.83
2019-02-05T06:43:34.171Z,95.40
2019-02-05T06:46:01.652Z,100.03
2019-02-05T06:48:29.122Z,91.27
2019-02-05T06:50:56.975Z,103.80
2019-02-05T06:53:24.444Z,97.37
2019-02-05T06:55:51.892Z,101.67
2019-02-05T06:58:19.343Z,90.03
2019-02-05T07:00:46.818Z,94.60
2019-02-05T07:03:14.745Z,93.03
2019-02-05T07:05:42.222Z,89.27
2019-02-05T07:08:09.660Z,96.63
2019-02-05T07:10:37.132Z,88.63
2019-02-05T07:13:04.620Z,89.17
2019-02-05T07:15:32.084Z,84.10
2019-02-05T07:17:59.525Z,81.70
2019-02-05T07:20:27.015Z,83.67
2019-02-05T07:22:55.800Z,93.27
2019-02-05T07:25:23.335Z,85.77
2019-02-05T07:27:50.777Z,87.60
2019-02-05T07:30:20.164Z,91.53
2019-02-05T07:32:47.611Z,86.33
2019-02-05T07:35:15.052Z,91.00
2019-02-05T07:37:42.629Z,89.50
2019-02-05T07:40:12.507Z,83.00
2019-02-05T07:42:40.170Z,99.03
2019-02-05T07:45:10.471Z,89.10
2019-02-05T07:47:37.952Z,82.83
2019-02-05T07:50:07.701Z,91.87
2019-02-05T07:52:36.044Z,85.13
2019-02-05T07:55:04.087Z,89.93
2019-02-05T07:57:31.519Z,93.67
2019-02-05T07:59:59.310Z,89.37
2019-02-05T08:02:26.767Z,84.83
2019-02-05T08:04:54.191Z,85.53
2019-02-05T08:07:21.654Z,89.87
2019-02-05T08:09:49.105Z,90.87
2019-02-05T08:12:16.606Z,89.90
2019-02-05T08:14:47.054Z,92.00
2019-02-05T08:17:14.504Z,85.37
2019-02-05T08:19:41.993Z,80.20
2019-02-05T08:22:09.916Z,82.27
2019-02-05T08:24:37.667Z,81.07
2019-02-05T08:27:05.094Z,84.23
2019-02-05T08:29:32.538Z,81.67
2019-02-05T08:32:00.018Z,77.43
2019-02-05T08:34:27.528Z,80.73
2019-02-05T08:36:54.978Z,79.03
2019-02-05T08:39:22.432Z,74.00
2019-02-05T08:41:50.080Z,75.00
2019-02-05T08:44:17.535Z,79.13
2019-02-05T08:46:44.955Z,77.67
2019-02-05T08:49:12.401Z,75.33
2019-02-05T08:51:39.863Z,74.47
2019-02-05T08:54:07.706Z,77.73
2019-02-05T08:56:35.179Z,71.67
2019-02-05T08:59:02.616Z,68.33
2019-02-05T09:01:30.050Z,81.87
2019-02-05T09:03:57.699Z,70.00
2019-02-05T09:06:25.133Z,69.83
2019-02-05T09:08:52.599Z,68.80
2019-02-05T09:11:20.027Z,63.20
2019-02-05T09:13:47.495Z,66.70
2019-02-05T09:16:14.919Z,63.20
2019-02-05T09:18:42.400Z,60.83
2019-02-05T09:21:09.810Z,58.30
2019-02-05T09:23:37.570Z,58.93
2019-02-05T09:26:05.004Z,61.33
2019-02-05T09:28:32.440Z,65.67
2019-02-05T09:31:00.014Z,61.33
2019-02-05T09:33:27.518Z,58.90
2019-02-05T09:35:55.020Z,64.53
2019-02-05T09:38:22.451Z,64.87
2019-02-05T09:40:50.014Z,62.57
2019-02-05T09:43:17.626Z,57.37
2019-02-05T09:45:45.136Z,59.80
2019-02-05T09:48:12.640Z,61.47
2019-02-05T09:50:44.652Z,59.40
2019-02-05T09:53:09.868Z,60.23
2019-02-05T09:55:37.468Z,60.27
2019-02-05T09:58:05.068Z,54.80
2019-02-05T10:00:34.852Z,61.97
2019-02-05T10:03:04.202Z,63.30
2019-02-05T10:05:32.182Z,57.93
2019-02-05T10:07:59.966Z,66.83
2019-02-05T10:10:27.609Z,56.03
2019-02-05T10:12:55.161Z,60.17
2019-02-05T10:15:27.743Z,62.83
2019-02-05T10:17:55.426Z,58.87
2019-02-05T10:20:23.406Z,58.33
2019-02-05T10:22:51.715Z,59.90
2019-02-05T10:25:19.167Z,58.77
2019-02-05T10:27:46.746Z,51.03
2019-02-05T10:30:20.137Z,54.13
2019-02-05T10:32:47.775Z,57.00
2019-02-05T10:35:15.721Z,55.17
2019-02-05T10:37:43.411Z,52.77
2019-02-05T10:40:10.999Z,60.90
2019-02-05T10:42:38.881Z,55.87
2019-02-05T10:45:07.728Z,55.20
2019-02-05T10:47:35.163Z,54.70
2019-02-05T10:50:03.438Z,51.67
2019-02-05T10:52:31.030Z,51.40
2019-02-05T10:54:58.759Z,48.60
2019-02-05T10:57:26.258Z,51.27
2019-02-05T10:59:54.411Z,47.77
2019-02-05T11:02:22.063Z,47.50
2019-02-05T11:04:49.493Z,44.63
2019-02-05T11:07:16.950Z,45.77
2019-02-05T11:09:44.408Z,41.68
2019-02-05T11:12:11.831Z,43.28
2019-02-05T11:14:39.496Z,40.45
2019-02-05T11:17:06.941Z,40.43
2019-02-05T11:19:34.428Z,43.55
2019-02-05T11:22:01.859Z,46.58
2019-02-05T11:24:29.307Z,43.47
2019-02-05T11:26:56.758Z,42.67
2019-02-05T11:29:24.272Z,47.33
2019-02-05T11:31:51.689Z,41.20
2019-02-05T11:34:19.450Z,46.30
2019-02-05T11:36:46.915Z,43.80
2019-02-05T11:39:15.218Z,43.83
2019-02-05T11:41:42.650Z,43.05
2019-02-05T11:44:10.110Z,38.38
2019-02-05T11:46:37.586Z,40.65
2019-02-05T11:49:05.031Z,41.83
2019-02-05T11:51:32.867Z,34.73
2019-02-05T11:54:00.627Z,35.00
2019-02-05T11:56:28.075Z,35.55
2019-02-05T11:58:55.557Z,36.28
2019-02-05T12:01:38.121Z,48.13
2019-02-05T12:03:57.187Z,35.63
2019-02-05T12:06:24.955Z,36.80
2019-02-05T12:08:52.413Z,37.15
2019-02-05T12:11:19.840Z,33.53
2019-02-05T12:13:47.299Z,32.75
2019-02-05T12:16:14.718Z,31.45
2019-02-05T12:18:42.221Z,30.88
2019-02-05T12:21:09.640Z,33.98
2019-02-05T12:23:37.118Z,29.75
2019-02-05T12:26:04.576Z,30.95
2019-02-05T12:28:32.406Z,32.17
2019-02-05T12:30:59.941Z,30.57
2019-02-05T12:33:27.645Z,27.48
2019-02-05T12:35:55.087Z,25.25
2019-02-05T12:38:22.783Z,22.15
2019-02-05T12:40:50.247Z,23.05
2019-02-05T12:43:17.688Z,18.42
2019-02-05T12:45:45.146Z,19.23
2019-02-05T12:48:12.574Z,18.55
2019-02-05T12:50:40.338Z,22.02
2019-02-05T12:53:08.169Z,17.52
2019-02-05T12:55:35.643Z,19.85
2019-02-05T12:58:03.922Z,21.52
2019-02-05T13:00:36.050Z,22.95
2019-02-05T13:03:04.506Z,21.97
2019-02-05T13:05:31.958Z,18.30
2019-02-05T13:08:05.348Z,19.00
2019-02-05T13:10:34.064Z,24.52
2019-02-05T13:13:01.592Z,24.05
2019-02-05T13:15:29.506Z,25.82
2019-02-05T13:17:56.959Z,25.65
2019-02-05T13:20:26.547Z,21.48
2019-02-05T13:22:54.396Z,22.62
2019-02-05T13:25:23.635Z,20.77
2019-02-05T13:27:51.394Z,21.50
2019-02-05T13:30:21.363Z,18.43
2019-02-05T13:32:48.849Z,19.73
2019-02-05T13:35:17.109Z,21.70
2019-02-05T13:37:44.681Z,20.53
2019-02-05T13:40:14.509Z,26.20
2019-02-05T13:42:41.976Z,21.50
2019-02-05T13:45:09.892Z,19.50
2019-02-05T13:47:37.334Z,20.80
2019-02-05T13:50:07.831Z,21.87
2019-02-05T13:52:35.763Z,26.07
2019-02-05T13:55:06.347Z,21.63
2019-02-05T13:57:33.791Z,18.33
2019-02-05T14:00:01.235Z,26.17
2019-02-05T14:02:28.716Z,21.73
2019-02-05T14:04:56.165Z,20.83
2019-02-05T14:07:23.622Z,22.07
2019-02-05T14:09:51.073Z,24.30
2019-02-05T14:12:21.722Z,21.87
2019-02-05T14:14:48.087Z,19.77
2019-02-05T14:17:15.535Z,20.33
2019-02-05T14:19:43.074Z,20.93
2019-02-05T14:22:10.572Z,23.23
2019-02-05T14:24:38.071Z,19.60
2019-02-05T14:27:05.605Z,20.53
2019-02-05T14:29:33.355Z,22.43
2019-02-05T14:32:00.843Z,24.17
2019-02-05T14:34:28.325Z,23.47
2019-02-05T14:36:55.774Z,21.43
2019-02-05T14:39:23.267Z,21.03
2019-02-05T14:41:50.723Z,25.27
2019-02-05T14:44:18.191Z,22.67
2019-02-05T14:46:45.649Z,23.40
2019-02-05T14:49:13.122Z,28.47
2019-02-05T14:51:40.652Z,23.60
2019-02-05T14:54:08.124Z,25.90
2019-02-05T14:56:35.639Z,30.33
2019-02-05T14:59:03.434Z,24.30
2019-02-05T15:01:41.536Z,27.63
2019-02-05T15:04:00.156Z,26.07
2019-02-05T15:06:27.655Z,24.27
2019-02-05T15:08:55.156Z,24.53
2019-02-05T15:11:22.624Z,28.60
2019-02-05T15:13:50.075Z,32.60
2019-02-05T15:16:17.525Z,30.60
2019-02-05T15:18:45.261Z,28.40
2019-02-05T15:21:13.075Z,27.87
2019-02-05T15:23:40.488Z,29.27
2019-02-05T15:26:07.934Z,24.73
2019-02-05T15:28:35.705Z,25.43
2019-02-05T15:31:03.261Z,26.17
2019-02-05T15:33:56.349Z,25.20
2019-02-05T15:36:34.872Z,29.87
2019-02-05T15:39:03.904Z,29.93
2019-02-05T15:41:31.355Z,29.50
2019-02-05T15:44:00.668Z,28.53
2019-02-05T15:46:28.075Z,30.93
2019-02-05T15:48:55.522Z,30.20
2019-02-05T15:51:23.035Z,29.80
2019-02-05T15:53:50.600Z,25.90
2019-02-05T15:56:18.081Z,30.13
2019-02-05T15:58:45.747Z,25.03
2019-02-05T16:01:13.225Z,27.97
2019-02-05T16:03:40.974Z,30.57
2019-02-05T16:06:08.436Z,28.37
2019-02-05T16:08:40.168Z,30.03
2019-02-05T16:11:09.350Z,29.10
2019-02-05T16:13:38.851Z,30.03
2019-02-05T16:16:08.066Z,31.60
2019-02-05T16:18:35.524Z,31.13
2019-02-05T16:21:03.396Z,31.83
2019-02-05T16:23:30.831Z,33.97
2019-02-05T16:25:58.268Z,33.60
2019-02-05T16:28:25.868Z,34.67
2019-02-05T16:30:53.326Z,35.43
2019-02-05T16:33:20.782Z,32.73
2019-02-05T16:35:48.579Z,38.73
2019-02-05T16:38:16.198Z,32.60
2019-02-05T16:40:43.709Z,35.17
2019-02-05T16:43:11.275Z,34.10
2019-02-05T16:45:38.861Z,30.80
2019-02-05T16:48:06.390Z,32.33
2019-02-05T16:50:36.379Z,33.50
2019-02-05T16:53:05.227Z,32.80
2019-02-05T16:55:32.887Z,35.20
2019-02-05T16:58:00.432Z,35.83
2019-02-05T17:00:34.550Z,35.03
2019-02-05T17:03:02.764Z,34.77
2019-02-05T17:05:32.391Z,35.07
2019-02-05T17:08:00.542Z,35.23
2019-02-05T17:10:28.781Z,46.70
2019-02-05T17:12:56.774Z,31.27
2019-02-05T17:15:24.379Z,35.70
2019-02-05T17:17:52.040Z,33.37
2019-02-05T17:20:24.631Z,33.57
2019-02-05T17:22:52.147Z,46.33
2019-02-05T17:25:20.881Z,48.37
2019-02-05T17:27:48.448Z,48.50
2019-02-05T17:30:21.127Z,53.40
2019-02-05T17:32:48.634Z,48.70
2019-02-05T17:35:16.112Z,48.63
2019-02-05T17:37:43.589Z,54.93
2019-02-05T17:40:17.038Z,55.13
2019-02-05T17:42:48.087Z,49.80
2019-02-05T17:45:21.117Z,56.43
2019-02-05T17:47:50.405Z,50.47
2019-02-05T17:50:20.179Z,61.07
2019-02-05T17:52:51.214Z,54.07
2019-02-05T17:55:19.915Z,55.10
2019-02-05T17:57:48.293Z,59.57
2019-02-05T18:00:29.721Z,58.17
2019-02-05T18:02:57.637Z,55.87
2019-02-05T18:05:26.971Z,57.30
2019-02-05T18:07:55.704Z,54.40
2019-02-05T18:10:25.040Z,64.83
2019-02-05T18:12:59.778Z,63.47
2019-02-05T18:15:29.783Z,63.27
2019-02-05T18:17:57.836Z,69.53
2019-02-05T18:20:25.910Z,63.00
2019-02-05T18:22:54.327Z,60.33
2019-02-05T18:25:22.300Z,64.17
2019-02-05T18:27:50.068Z,67.23
2019-02-05T18:30:20.789Z,61.93
2019-02-05T18:32:49.812Z,60.20
2019-02-05T18:35:19.247Z,60.23
2019-02-05T18:37:48.774Z,66.83
2019-02-05T18:40:21.701Z,68.47
2019-02-05T18:42:51.132Z,70.57
2019-02-05T18:45:20.593Z,60.17
2019-02-05T18:47:49.807Z,72.57
2019-02-05T18:50:23.614Z,67.17
2019-02-05T18:52:53.012Z,64.47
2019-02-05T18:55:23.415Z,75.37
2019-02-05T18:57:52.301Z,74.67
2019-02-05T19:00:26.545Z,62.50
2019-02-05T19:02:56.186Z,73.10
2019-02-05T19:05:25.843Z,69.13
2019-02-05T19:08:16.403Z,85.37
2019-02-05T19:10:46.250Z,79.50
2019-02-05T19:13:14.122Z,79.47
2019-02-05T19:15:42.567Z,75.03
2019-02-05T19:18:12.254Z,79.10
2019-02-05T19:20:40.314Z,79.30
2019-02-05T19:23:09.091Z,70.73
2019-02-05T19:25:55.558Z,74.77
2019-02-05T19:28:37.486Z,75.00
2019-02-05T19:31:12.592Z,75.03
2019-02-05T19:33:41.306Z,75.13
2019-02-05T19:36:09.960Z,72.47
2019-02-05T19:38:38.688Z,70.10
2019-02-05T19:41:06.355Z,75.60
2019-02-05T19:43:34.660Z,73.60
2019-02-05T19:46:21.736Z,85.67
2019-02-05T19:48:57.814Z,71.53
2019-02-05T19:51:26.811Z,81.63
2019-02-05T19:53:55.143Z,74.90
2019-02-05T19:56:24.719Z,77.77
2019-02-05T19:58:53.393Z,78.13
2019-02-05T20:01:21.720Z,73.90
2019-02-05T20:03:49.892Z,70.27
2019-02-05T20:06:18.543Z,74.07
2019-02-05T20:08:47.559Z,68.00
2019-02-05T20:11:16.908Z,71.87
2019-02-05T20:13:45.567Z,70.33
2019-02-05T20:16:13.638Z,69.67
2019-02-05T20:18:43.848Z,73.43
2019-02-05T20:21:13.040Z,66.50
2019-02-05T20:23:41.394Z,67.53
2019-02-05T20:26:09.974Z,75.47
2019-02-05T20:28:39.010Z,77.17
2019-02-05T20:31:07.153Z,78.57
2019-02-05T20:33:35.980Z,89.77
2019-02-05T20:36:09.602Z,89.97
2019-02-05T20:38:37.988Z,81.93
2019-02-05T20:41:06.155Z,85.40
2019-02-05T20:43:35.519Z,87.63
2019-02-05T20:46:05.588Z,84.07
2019-02-05T20:48:34.141Z,87.17
2019-02-05T20:51:02.663Z,87.90
2019-02-05T20:53:31.866Z,90.40
2019-02-05T20:56:00.339Z,83.60
2019-02-05T20:58:29.269Z,78.90
2019-02-05T21:00:57.655Z,87.37
2019-02-05T21:03:26.513Z,82.27
2019-02-05T21:05:54.601Z,78.80
2019-02-05T21:08:22.707Z,81.70
2019-02-05T21:10:50.694Z,85.70
2019-02-05T21:13:18.585Z,98.13
2019-02-05T21:15:49.067Z,92.40
2019-02-05T21:18:17.629Z,95.13
2019-02-05T21:20:45.347Z,93.27
2019-02-05T21:23:12.964Z,99.53
2019-02-05T21:25:40.536Z,94.03
2019-02-05T21:28:08.094Z,87.73
2019-02-05T21:30:35.770Z,93.60
2019-02-05T21:33:03.490Z,91.23
2019-02-05T21:35:31.042Z,98.03
2019-02-05T21:37:59.143Z,97.10
2019-02-05T21:40:26.620Z,99.87
2019-02-05T21:42:54.142Z,92.83
2019-02-05T21:45:25.331Z,93.00
2019-02-05T21:47:52.923Z,94.57
2019-02-05T21:50:21.647Z,86.80
2019-02-05T21:52:50.752Z,110.53
2019-02-05T21:55:19.025Z,100.87
2019-02-05T21:57:47.848Z,98.57
2019-02-05T22:00:21.862Z,114.23
2019-02-05T22:02:49.557Z,102.10
2019-02-05T22:05:20.182Z,113.60
2019-02-05T22:07:50.047Z,107.63
2019-02-05T22:10:18.370Z,107.73
2019-02-05T22:12:45.962Z,106.97
2019-02-05T22:15:14.045Z,99.10
2019-02-05T22:17:45.843Z,103.97
2019-02-05T22:20:19.533Z,110.97
2019-02-05T22:22:55.945Z,97.53
2019-02-05T22:25:23.295Z,96.53
2019-02-05T22:27:51.677Z,81.37
2019-02-05T22:30:28.360Z,84.40
2019-02-05T22:32:59.768Z,77.33
2019-02-05T22:35:28.698Z,81.13
2019-02-05T22:37:57.421Z,73.83
2019-02-05T22:40:26.423Z,73.20
2019-02-05T22:42:54.844Z,86.83
2019-02-05T22:45:27.793Z,81.97
2019-02-05T22:47:55.271Z,90.93
2019-02-05T22:50:25.002Z,90.70
2019-02-05T22:52:55.683Z,85.00
2019-02-05T22:55:23.640Z,87.33
2019-02-05T22:57:51.126Z,79.37
2019-02-05T23:01:00.218Z,84.87
2019-02-05T23:03:31.498Z,80.50
2019-02-05T23:06:31.043Z,89.10
2019-02-05T23:09:13.592Z,83.20
2019-02-05T23:12:07.267Z,84.43
2019-02-05T23:14:35.076Z,74.03
2019-02-05T23:17:03.586Z,72.37
2019-02-05T23:19:32.659Z,84.83
2019-02-05T23:22:00.621Z,82.90
2019-02-05T23:24:31.157Z,72.57
2019-02-05T23:27:00.278Z,84.27
2019-02-05T23:29:29.880Z,85.67
2019-02-05T23:32:01.100Z,77.67
2019-02-05T23:34:32.343Z,80.23
2019-02-05T23:37:02.364Z,86.60
2019-02-05T23:39:33.910Z,75.37
2019-02-05T23:42:02.215Z,84.20
2019-02-05T23:44:30.280Z,79.87
2019-02-05T23:47:01.247Z,88.57
2019-02-05T23:49:32.074Z,82.20
2019-02-05T23:52:01.066Z,99.57
2019-02-05T23:54:28.680Z,92.17
2019-02-05T23:57:01.985Z,86.03
2019-02-05T23:59:29.567Z,88.70
